Time;durP1;ratioP1;P1;durP2;ratioP2;P2;SDS_P1;SDS_P2;PMS_P1;PMS_P2;Temp;Humidity;BMP_temperature;BMP_pressure;BME280_temperature;BME280_humidity;BME280_pressure;Samples;Min_cycle;Max_cycle;Signal;HPM_P1;HPM_P2
2021/10/04 00:01:30;;;;;;;15.07;7.35;;;11.10;99.90;;;;;;4863481;29;20041;-84
2021/10/04 00:03:56;;;;;;;18.10;7.85;;;11.10;99.90;;;;;;4849255;29;20063;-80
2021/10/04 00:06:22;;;;;;;14.23;7.93;;;11.10;99.90;;;;;;4864587;29;20051;-82
2021/10/04 00:08:47;;;;;;;16.63;6.60;;;11.10;99.90;;;;;;4845139;29;20045;-81
2021/10/04 00:11:13;;;;;;;12.30;6.20;;;11.10;99.90;;;;;;4846817;29;20688;-83
2021/10/04 00:13:39;;;;;;;12.52;6.00;;;11.20;99.90;;;;;;4851823;29;20048;-84
2021/10/04 00:16:05;;;;;;;14.40;6.50;;;11.20;99.90;;;;;;4851439;29;20143;-83
2021/10/04 00:18:31;;;;;;;10.18;5.57;;;11.20;99.90;;;;;;4851315;29;20698;-83
2021/10/04 00:20:56;;;;;;;9.43;5.82;;;11.20;99.90;;;;;;4852986;29;20052;-82
2021/10/04 00:23:22;;;;;;;11.25;5.35;;;11.20;99.90;;;;;;4833108;29;20100;-83
2021/10/04 00:25:48;;;;;;;12.00;5.00;;;11.20;99.90;;;;;;4870444;29;20045;-84
2021/10/04 00:28:14;;;;;;;15.68;5.88;;;11.30;99.90;;;;;;4866301;29;20488;-84
2021/10/04 00:30:40;;;;;;;8.90;4.35;;;11.30;99.90;;;;;;4869361;29;20047;-84
2021/10/04 00:33:06;;;;;;;14.73;5.38;;;11.20;99.90;;;;;;4865254;29;20051;-83
2021/10/04 00:35:31;;;;;;;11.13;5.38;;;11.30;99.90;;;;;;4896260;29;20036;-84
2021/10/04 00:37:57;;;;;;;11.73;4.65;;;11.30;99.90;;;;;;4866570;29;20045;-81
2021/10/04 00:40:29;;;;;;;9.88;5.10;;;11.30;99.90;;;;;;4866282;29;20055;-83
2021/10/04 00:42:56;;;;;;;13.13;5.05;;;11.30;99.90;;;;;;4869265;29;20425;-80
2021/10/04 00:45:22;;;;;;;12.55;4.43;;;11.30;99.90;;;;;;4866385;29;20051;-83
2021/10/04 00:47:49;;;;;;;11.25;4.80;;;11.30;99.90;;;;;;4879135;29;20045;-83
2021/10/04 00:50:17;;;;;;;11.13;4.80;;;11.40;99.90;;;;;;4854536;29;20057;-82
2021/10/04 00:52:43;;;;;;;6.68;4.32;;;11.30;99.90;;;;;;4879207;29;20048;-83
2021/10/04 00:55:10;;;;;;;10.57;4.03;;;11.40;99.90;;;;;;4855301;29;20036;-83
2021/10/04 00:57:38;;;;;;;10.15;4.18;;;11.40;99.90;;;;;;4890058;29;20067;-80
2021/10/04 01:00:10;;;;;;;7.00;3.78;;;11.40;99.90;;;;;;4882897;29;20041;-83
2021/10/04 01:02:36;;;;;;;11.02;3.80;;;11.40;99.90;;;;;;4880250;29;20045;-83
2021/10/04 01:05:03;;;;;;;9.30;3.97;;;11.40;99.90;;;;;;4852099;29;20215;-82
2021/10/04 01:07:29;;;;;;;6.20;4.03;;;11.40;99.90;;;;;;4883432;29;20040;-83
2021/10/04 01:09:54;;;;;;;6.90;3.53;;;11.40;99.90;;;;;;4858915;29;20052;-81
2021/10/04 01:12:20;;;;;;;8.20;3.85;;;11.30;99.90;;;;;;4850499;29;20052;-83
2021/10/04 01:14:46;;;;;;;9.27;3.95;;;11.30;99.90;;;;;;4879882;29;20055;-82
2021/10/04 01:17:12;;;;;;;10.13;3.95;;;11.40;99.90;;;;;;4879302;29;20076;-84
2021/10/04 01:19:41;;;;;;;9.45;3.75;;;11.30;99.90;;;;;;4851329;29;20041;-83
2021/10/04 01:22:09;;;;;;;12.05;3.72;;;11.40;99.90;;;;;;4858603;29;20060;-82
2021/10/04 01:24:36;;;;;;;10.93;3.83;;;11.30;99.90;;;;;;4882390;29;20397;-83
2021/10/04 01:27:03;;;;;;;8.93;3.80;;;11.30;99.90;;;;;;4854525;29;20059;-83
2021/10/04 01:29:29;;;;;;;8.27;3.33;;;11.30;99.90;;;;;;4867742;29;20044;-83
2021/10/04 01:31:55;;;;;;;12.93;3.63;;;11.30;99.90;;;;;;4856684;29;20523;-83
2021/10/04 01:34:21;;;;;;;9.13;3.55;;;11.40;99.90;;;;;;4853069;29;20055;-83
2021/10/04 01:36:46;;;;;;;6.57;2.83;;;11.30;99.90;;;;;;4867043;29;20047;-82
2021/10/04 01:39:12;;;;;;;8.90;3.20;;;11.40;99.90;;;;;;4858445;29;20112;-80
2021/10/04 01:41:38;;;;;;;8.13;3.70;;;11.30;99.90;;;;;;4850040;29;20522;-84
2021/10/04 01:44:04;;;;;;;10.35;3.42;;;11.30;99.90;;;;;;4874904;29;20045;-82
2021/10/04 01:46:30;;;;;;;7.88;3.15;;;11.30;99.90;;;;;;4836571;29;20036;-81
2021/10/04 01:48:56;;;;;;;11.23;3.35;;;11.30;99.90;;;;;;4856793;29;20048;-83
2021/10/04 01:51:21;;;;;;;8.98;3.50;;;11.30;99.90;;;;;;4858687;29;20503;-82
2021/10/04 01:53:47;;;;;;;8.13;3.08;;;11.30;99.90;;;;;;4852621;29;20049;-83
2021/10/04 01:56:13;;;;;;;8.95;3.38;;;11.40;99.90;;;;;;4871415;29;20100;-81
2021/10/04 01:58:39;;;;;;;7.07;2.95;;;11.40;99.90;;;;;;4850696;29;20131;-83
2021/10/04 02:01:07;;;;;;;8.02;3.20;;;11.30;99.90;;;;;;4867731;29;20041;-80
2021/10/04 02:03:33;;;;;;;6.28;3.15;;;11.30;99.90;;;;;;4867012;29;20045;-82
2021/10/04 02:05:58;;;;;;;10.20;3.13;;;11.40;99.90;;;;;;4857606;29;20040;-81
2021/10/04 02:08:25;;;;;;;6.18;2.72;;;11.30;99.90;;;;;;4865101;29;20064;-82
2021/10/04 02:10:51;;;;;;;4.55;2.78;;;11.30;99.90;;;;;;4866317;29;20457;-82
2021/10/04 02:13:17;;;;;;;10.50;3.00;;;11.40;99.90;;;;;;4846079;29;20083;-80
2021/10/04 02:15:43;;;;;;;5.55;2.63;;;11.30;99.90;;;;;;4866883;29;20068;-83
2021/10/04 02:18:12;;;;;;;8.73;2.78;;;11.30;99.90;;;;;;4874439;29;20032;-83
2021/10/04 02:20:40;;;;;;;11.13;2.78;;;11.40;99.90;;;;;;4874212;29;20301;-83
2021/10/04 02:23:09;;;;;;;4.93;2.30;;;11.40;99.90;;;;;;4884044;29;20049;-83
2021/10/04 02:25:37;;;;;;;7.43;2.70;;;11.40;99.90;;;;;;4888734;29;20040;-82
2021/10/04 02:28:04;;;;;;;5.50;2.53;;;11.30;99.90;;;;;;4883412;29;20064;-80
2021/10/04 02:30:30;;;;;;;6.57;2.63;;;11.40;99.90;;;;;;4856763;29;20853;-83
2021/10/04 02:32:56;;;;;;;8.90;2.60;;;11.40;99.90;;;;;;4855240;29;20075;-83
2021/10/04 02:35:22;;;;;;;7.05;2.35;;;11.40;99.90;;;;;;4847414;29;20044;-83
2021/10/04 02:37:49;;;;;;;8.75;2.58;;;11.40;99.90;;;;;;4854549;29;20048;-81
2021/10/04 02:40:15;;;;;;;7.88;2.88;;;11.40;99.90;;;;;;4866542;29;20171;-83
2021/10/04 02:42:42;;;;;;;6.65;2.50;;;11.40;99.90;;;;;;4867772;29;20048;-82
2021/10/04 02:45:09;;;;;;;12.10;2.78;;;11.30;99.90;;;;;;4851550;29;20056;-82
2021/10/04 02:47:35;;;;;;;9.05;2.53;;;11.40;99.90;;;;;;4849150;29;20063;-84
2021/10/04 02:50:00;;;;;;;9.63;2.75;;;11.30;99.90;;;;;;4860708;29;20452;-83
2021/10/04 02:52:26;;;;;;;6.45;2.10;;;11.30;99.90;;;;;;4851393;29;20052;-83
2021/10/04 02:54:52;;;;;;;7.78;2.53;;;11.30;99.90;;;;;;4854758;29;20155;-83
2021/10/04 02:57:17;;;;;;;8.75;2.15;;;11.30;99.90;;;;;;4836782;29;20147;-83
2021/10/04 02:59:43;;;;;;;8.23;2.33;;;11.30;99.90;;;;;;4854364;29;20044;-84
2021/10/04 03:02:09;;;;;;;8.48;2.55;;;11.30;99.90;;;;;;4867365;29;20044;-83
2021/10/04 03:04:35;;;;;;;5.78;2.45;;;11.30;99.90;;;;;;4852341;29;20044;-83
2021/10/04 03:07:00;;;;;;;9.02;2.35;;;11.30;99.90;;;;;;4865937;29;20040;-83
2021/10/04 03:09:26;;;;;;;9.65;2.95;;;11.30;99.90;;;;;;4864336;29;20470;-83
2021/10/04 03:11:52;;;;;;;6.03;2.28;;;11.30;99.90;;;;;;4866747;29;20255;-83
2021/10/04 03:14:18;;;;;;;3.80;2.10;;;11.30;99.90;;;;;;4853340;29;20045;-83
2021/10/04 03:16:43;;;;;;;8.25;2.47;;;11.30;99.90;;;;;;4887267;29;20036;-83
2021/10/04 03:19:09;;;;;;;7.43;2.17;;;11.30;99.90;;;;;;4861158;29;20399;-84
2021/10/04 03:21:35;;;;;;;8.38;2.13;;;11.20;99.90;;;;;;4851597;29;21092;-81
2021/10/04 03:24:01;;;;;;;6.20;2.22;;;11.30;99.90;;;;;;4870102;29;20595;-82
2021/10/04 03:26:27;;;;;;;9.68;2.75;;;11.30;99.90;;;;;;4868613;29;20067;-83
2021/10/04 03:28:53;;;;;;;11.30;2.20;;;11.30;99.90;;;;;;4861781;29;20637;-84
2021/10/04 03:31:19;;;;;;;7.18;2.58;;;11.30;99.90;;;;;;4872559;29;20168;-83
2021/10/04 03:33:44;;;;;;;6.28;2.00;;;11.30;99.90;;;;;;4830229;29;20068;-84
2021/10/04 03:36:10;;;;;;;6.82;2.15;;;11.20;99.90;;;;;;4866391;29;20053;-84
2021/10/04 03:38:36;;;;;;;6.10;2.53;;;11.20;99.90;;;;;;4867867;29;20048;-83
2021/10/04 03:41:01;;;;;;;9.38;2.25;;;11.20;99.90;;;;;;4857890;29;20079;-83
2021/10/04 03:43:27;;;;;;;7.05;1.88;;;11.20;99.90;;;;;;4876585;29;20033;-84
2021/10/04 03:45:53;;;;;;;8.88;2.35;;;11.20;99.90;;;;;;4832504;29;20165;-84
2021/10/04 03:48:20;;;;;;;9.48;2.70;;;11.20;99.90;;;;;;4862967;29;20120;-83
2021/10/04 03:50:46;;;;;;;6.15;2.67;;;11.10;99.90;;;;;;4865702;29;20032;-83
2021/10/04 03:53:12;;;;;;;11.05;2.70;;;11.10;99.90;;;;;;4873072;29;20047;-83
2021/10/04 03:55:38;;;;;;;5.10;2.15;;;11.00;99.90;;;;;;4876046;29;20100;-83
2021/10/04 03:58:03;;;;;;;11.43;2.58;;;11.00;99.90;;;;;;4875590;29;20055;-84
2021/10/04 04:00:29;;;;;;;5.47;2.17;;;11.00;99.90;;;;;;4869719;29;20080;-83
2021/10/04 04:02:55;;;;;;;5.38;2.30;;;11.00;99.90;;;;;;4883494;29;20085;-83
2021/10/04 04:05:21;;;;;;;9.50;2.75;;;11.00;99.90;;;;;;4840083;29;20427;-83
2021/10/04 04:07:47;;;;;;;6.00;2.25;;;10.90;99.90;;;;;;4878929;29;20048;-84
2021/10/04 04:10:16;;;;;;;9.45;2.50;;;11.00;99.90;;;;;;4876006;29;20048;-84
2021/10/04 04:12:42;;;;;;;10.82;2.78;;;10.90;99.90;;;;;;4860468;29;20520;-84
2021/10/04 04:15:10;;;;;;;10.00;2.70;;;10.90;99.90;;;;;;4885854;29;20105;-84
2021/10/04 04:17:36;;;;;;;5.13;2.17;;;10.90;99.90;;;;;;4876990;29;20079;-84
2021/10/04 04:20:03;;;;;;;9.38;3.15;;;10.90;99.90;;;;;;4869388;29;20123;-84
2021/10/04 04:22:29;;;;;;;10.98;3.30;;;10.90;99.90;;;;;;4853509;29;20462;-84
2021/10/04 04:24:56;;;;;;;7.47;2.72;;;10.90;99.90;;;;;;4851977;29;21299;-84
2021/10/04 04:27:25;;;;;;;6.90;2.55;;;10.80;99.90;;;;;;4858084;29;20064;-84
2021/10/04 04:29:51;;;;;;;8.25;3.15;;;10.80;99.90;;;;;;4872262;29;20053;-83
2021/10/04 04:32:19;;;;;;;10.10;2.95;;;10.80;99.90;;;;;;4846296;29;20049;-84
2021/10/04 04:34:44;;;;;;;7.03;2.50;;;10.80;99.90;;;;;;4888530;29;20036;-84
2021/10/04 04:37:10;;;;;;;9.35;2.50;;;10.80;99.90;;;;;;4853284;29;20656;-83
2021/10/04 04:39:36;;;;;;;8.40;2.70;;;10.80;99.90;;;;;;4835410;29;20411;-84
2021/10/04 04:42:04;;;;;;;6.95;2.67;;;10.80;99.90;;;;;;4837936;29;20048;-83
2021/10/04 04:44:31;;;;;;;10.40;2.97;;;10.70;99.90;;;;;;4876317;29;20041;-84
2021/10/04 04:46:57;;;;;;;7.30;2.78;;;10.70;99.90;;;;;;4843928;29;20059;-84
2021/10/04 04:49:26;;;;;;;7.95;2.47;;;10.70;99.90;;;;;;4844522;29;20041;-83
2021/10/04 04:51:54;;;;;;;6.78;2.47;;;10.70;99.90;;;;;;4843569;29;20059;-83
2021/10/04 04:54:20;;;;;;;9.75;2.97;;;10.70;99.90;;;;;;4859386;29;20058;-84
2021/10/04 04:56:46;;;;;;;5.80;2.50;;;10.70;99.90;;;;;;4841586;29;20051;-84
2021/10/04 04:59:11;;;;;;;10.50;2.50;;;10.70;99.90;;;;;;4856952;29;20101;-83
2021/10/04 05:01:38;;;;;;;7.80;3.00;;;10.60;99.90;;;;;;4852288;29;20128;-82
2021/10/04 05:04:04;;;;;;;10.57;2.85;;;10.70;99.90;;;;;;4874228;29;20127;-84
2021/10/04 05:06:30;;;;;;;10.55;2.88;;;10.60;99.90;;;;;;4859548;29;20040;-83
2021/10/04 05:08:56;;;;;;;13.02;3.15;;;10.70;99.90;;;;;;4861074;29;20048;-84
2021/10/04 05:11:21;;;;;;;6.85;2.65;;;10.70;99.90;;;;;;4833781;29;20601;-83
2021/10/04 05:13:47;;;;;;;13.10;3.15;;;10.70;99.90;;;;;;4861370;29;20790;-83
2021/10/04 05:16:13;;;;;;;9.50;2.72;;;10.70;99.90;;;;;;4871296;29;20052;-84
2021/10/04 05:18:39;;;;;;;10.63;3.10;;;10.60;99.90;;;;;;4849139;29;21149;-84
2021/10/04 05:21:05;;;;;;;10.68;3.10;;;10.70;99.90;;;;;;4881407;29;20055;-83
2021/10/04 05:23:32;;;;;;;7.13;3.00;;;10.70;99.90;;;;;;4851946;29;20075;-83
2021/10/04 05:25:58;;;;;;;14.30;3.55;;;10.70;99.90;;;;;;4861953;29;21287;-82
2021/10/04 05:28:24;;;;;;;9.65;2.70;;;10.70;99.90;;;;;;4869324;29;21886;-83
2021/10/04 05:30:49;;;;;;;9.18;2.67;;;10.60;99.90;;;;;;4867011;29;20041;-85
2021/10/04 05:33:15;;;;;;;5.82;2.20;;;10.70;99.90;;;;;;4839405;29;20041;-83
2021/10/04 05:35:41;;;;;;;5.95;2.60;;;10.70;99.90;;;;;;4849878;29;20044;-84
2021/10/04 05:38:06;;;;;;;9.35;2.90;;;10.70;99.90;;;;;;4846019;29;20067;-84
2021/10/04 05:40:32;;;;;;;8.05;3.00;;;10.70;99.90;;;;;;4849200;29;20131;-83
2021/10/04 05:42:58;;;;;;;11.45;2.30;;;10.70;99.90;;;;;;4843609;29;20048;-84
2021/10/04 05:45:24;;;;;;;6.50;2.50;;;10.70;99.90;;;;;;4859865;29;20045;-83
2021/10/04 05:47:49;;;;;;;7.55;2.67;;;10.70;99.90;;;;;;4867012;29;20044;-84
2021/10/04 05:50:15;;;;;;;6.03;2.55;;;10.70;99.90;;;;;;4846385;29;20073;-83
2021/10/04 05:52:42;;;;;;;7.45;2.70;;;10.70;99.90;;;;;;4867892;29;20049;-83
2021/10/04 05:55:08;;;;;;;8.35;2.22;;;10.70;99.90;;;;;;4861028;29;20089;-84
2021/10/04 05:57:34;;;;;;;5.72;2.40;;;10.70;99.90;;;;;;4864995;29;20072;-84
2021/10/04 06:00:00;;;;;;;9.93;2.75;;;10.80;99.90;;;;;;4861625;29;20417;-83
2021/10/04 06:02:26;;;;;;;6.35;2.35;;;10.80;99.90;;;;;;4865585;29;20059;-83
2021/10/04 06:04:52;;;;;;;6.57;2.83;;;10.80;99.90;;;;;;4862543;29;20056;-84
2021/10/04 06:07:18;;;;;;;9.77;3.17;;;10.80;99.90;;;;;;4852998;29;20484;-85
2021/10/04 06:09:43;;;;;;;7.22;2.70;;;10.80;99.90;;;;;;4848584;29;20041;-82
2021/10/04 06:12:09;;;;;;;6.72;2.55;;;10.80;99.90;;;;;;4869781;29;20036;-83
2021/10/04 06:14:35;;;;;;;8.35;2.83;;;10.80;99.90;;;;;;4875416;29;20555;-83
2021/10/04 06:17:01;;;;;;;6.28;2.78;;;10.90;99.90;;;;;;4862420;29;20036;-84
2021/10/04 06:19:27;;;;;;;10.90;3.28;;;10.90;99.90;;;;;;4869259;29;20041;-83
2021/10/04 06:21:54;;;;;;;7.50;2.60;;;10.90;99.90;;;;;;4864334;29;20064;-83
2021/10/04 06:24:20;;;;;;;11.00;3.15;;;10.90;99.90;;;;;;4881737;29;20217;-83
2021/10/04 06:26:46;;;;;;;7.90;2.70;;;10.90;99.90;;;;;;4863289;29;20041;-85
2021/10/04 06:29:13;;;;;;;8.95;3.33;;;11.00;99.90;;;;;;4865143;29;20132;-84
2021/10/04 06:31:39;;;;;;;13.73;3.47;;;11.00;99.90;;;;;;4878169;29;20060;-84
2021/10/04 06:34:05;;;;;;;13.90;4.00;;;11.00;99.90;;;;;;4876227;29;20512;-86
2021/10/04 06:36:31;;;;;;;10.95;3.03;;;11.00;99.90;;;;;;4854158;29;20041;-84
2021/10/04 06:38:57;;;;;;;6.60;2.75;;;11.00;99.90;;;;;;4867629;29;20036;-84
2021/10/04 06:41:23;;;;;;;7.75;3.03;;;11.00;99.90;;;;;;4846705;29;21014;-84
2021/10/04 06:43:49;;;;;;;8.52;2.90;;;11.10;99.90;;;;;;4880464;29;20044;-84
2021/10/04 06:46:15;;;;;;;7.90;3.03;;;11.00;99.90;;;;;;4856103;29;20048;-84
2021/10/04 06:48:41;;;;;;;5.45;2.63;;;11.10;99.90;;;;;;4872611;29;20137;-82
2021/10/04 06:51:07;;;;;;;6.50;2.60;;;11.10;99.90;;;;;;4874022;29;20044;-83
2021/10/04 06:53:34;;;;;;;8.25;3.20;;;11.10;99.90;;;;;;4870323;29;20416;-83
2021/10/04 06:55:59;;;;;;;6.95;2.60;;;11.10;99.90;;;;;;4879317;29;20037;-85
2021/10/04 06:58:26;;;;;;;10.40;2.90;;;11.10;99.90;;;;;;4890172;29;20526;-84
2021/10/04 07:00:52;;;;;;;6.43;2.90;;;11.10;99.90;;;;;;4861731;29;20044;-83
2021/10/04 07:03:17;;;;;;;6.53;2.95;;;11.20;99.90;;;;;;4846869;29;20049;-83
2021/10/04 07:05:45;;;;;;;9.45;3.30;;;11.20;99.90;;;;;;4843319;29;20424;-84
2021/10/04 07:08:11;;;;;;;7.45;3.10;;;11.20;99.90;;;;;;4870673;29;20407;-82
2021/10/04 07:10:38;;;;;;;11.20;2.70;;;11.20;99.90;;;;;;4857390;29;20089;-83
2021/10/04 07:13:05;;;;;;;5.65;2.90;;;11.20;99.90;;;;;;4894321;29;20056;-83
2021/10/04 07:15:31;;;;;;;5.82;2.67;;;11.20;99.90;;;;;;4877669;29;20040;-84
2021/10/04 07:17:56;;;;;;;9.25;3.30;;;11.20;99.90;;;;;;4887873;29;20384;-82
2021/10/04 07:20:22;;;;;;;5.93;2.45;;;11.30;99.90;;;;;;4868982;29;20029;-85
2021/10/04 07:22:48;;;;;;;10.07;2.95;;;11.30;99.90;;;;;;4875523;29;20055;-84
2021/10/04 07:25:16;;;;;;;8.48;3.83;;;11.30;99.90;;;;;;4863611;29;20103;-85
2021/10/04 07:27:42;;;;;;;7.10;2.60;;;11.30;99.90;;;;;;4870377;29;20102;-82
2021/10/04 07:30:09;;;;;;;5.43;2.80;;;11.30;99.90;;;;;;4866392;29;20052;-83
2021/10/04 07:32:35;;;;;;;9.38;2.78;;;11.40;99.90;;;;;;4882594;29;20045;-82
2021/10/04 07:35:01;;;;;;;7.65;2.80;;;11.30;99.90;;;;;;4856000;29;21463;-84
2021/10/04 07:37:27;;;;;;;9.48;2.67;;;11.40;99.90;;;;;;4889430;29;20044;-83
2021/10/04 07:39:54;;;;;;;9.05;2.55;;;11.40;99.90;;;;;;4871410;29;20073;-83
2021/10/04 07:42:20;;;;;;;8.93;3.08;;;11.40;99.90;;;;;;4848673;29;20044;-83
2021/10/04 07:44:46;;;;;;;9.35;2.72;;;11.40;99.90;;;;;;4872766;29;20413;-84
2021/10/04 07:47:12;;;;;;;7.75;3.08;;;11.40;99.90;;;;;;4878131;29;20108;-82
2021/10/04 07:49:38;;;;;;;9.35;2.90;;;11.50;99.90;;;;;;4856636;29;20052;-82
2021/10/04 07:52:04;;;;;;;7.97;2.40;;;11.40;99.90;;;;;;4881480;29;20041;-84
2021/10/04 07:54:29;;;;;;;7.60;2.97;;;11.50;99.90;;;;;;4868045;29;20154;-83
2021/10/04 07:56:55;;;;;;;4.63;2.47;;;11.50;99.90;;;;;;4863686;29;20049;-82
2021/10/04 07:59:21;;;;;;;7.95;2.85;;;11.50;99.90;;;;;;4861845;29;20069;-83
2021/10/04 08:01:47;;;;;;;8.02;2.75;;;11.50;99.90;;;;;;4867896;29;20487;-83
2021/10/04 08:04:12;;;;;;;7.18;2.97;;;11.50;99.90;;;;;;4834532;29;20128;-83
2021/10/04 08:06:38;;;;;;;5.38;2.70;;;11.60;99.90;;;;;;4869276;29;20044;-84
2021/10/04 08:09:04;;;;;;;8.05;3.05;;;11.60;99.90;;;;;;4864232;29;20270;-84
2021/10/04 08:11:30;;;;;;;4.28;2.63;;;11.60;99.90;;;;;;4870614;29;20401;-84
2021/10/04 08:13:55;;;;;;;5.90;2.60;;;11.70;99.90;;;;;;4871265;29;20046;-84
2021/10/04 08:16:22;;;;;;;9.48;2.33;;;11.60;99.90;;;;;;4851694;29;20119;-84
2021/10/04 08:18:49;;;;;;;8.45;3.10;;;11.70;99.90;;;;;;4875724;29;20037;-83
2021/10/04 08:21:16;;;;;;;10.23;3.03;;;11.70;99.90;;;;;;4849657;29;20056;-83
2021/10/04 08:23:43;;;;;;;11.00;2.90;;;11.80;99.90;;;;;;4853069;29;20411;-83
2021/10/04 08:26:09;;;;;;;12.38;3.10;;;11.80;99.90;;;;;;4859655;29;20060;-83
2021/10/04 08:28:35;;;;;;;8.68;2.70;;;11.80;99.90;;;;;;4880791;29;20036;-82
2021/10/04 08:31:01;;;;;;;7.68;2.75;;;11.80;99.90;;;;;;4869868;29;20522;-83
2021/10/04 08:33:28;;;;;;;11.07;2.50;;;11.80;99.90;;;;;;4873123;29;20057;-84
2021/10/04 08:35:55;;;;;;;6.55;2.67;;;11.80;99.90;;;;;;4854514;29;20365;-83
2021/10/04 08:38:21;;;;;;;7.07;2.78;;;11.90;99.90;;;;;;4874340;29;20085;-83
2021/10/04 08:40:47;;;;;;;5.25;2.90;;;11.90;99.90;;;;;;4851045;29;20036;-83
2021/10/04 08:43:13;;;;;;;7.93;2.83;;;11.90;99.90;;;;;;4842401;29;20549;-83
2021/10/04 08:45:40;;;;;;;6.60;2.92;;;11.90;99.90;;;;;;4884466;29;20576;-84
2021/10/04 08:48:07;;;;;;;4.43;2.70;;;11.90;99.90;;;;;;4867010;29;20048;-83
2021/10/04 08:50:33;;;;;;;4.65;2.80;;;11.90;99.90;;;;;;4870137;29;20057;-82
2021/10/04 08:53:03;;;;;;;11.63;3.28;;;11.80;99.90;;;;;;4867266;29;20120;-85
2021/10/04 08:55:30;;;;;;;6.20;2.60;;;11.90;99.90;;;;;;4855456;29;20064;-83
2021/10/04 08:57:56;;;;;;;5.78;2.50;;;11.80;99.90;;;;;;4853784;29;20513;-83
2021/10/04 09:00:22;;;;;;;7.63;2.65;;;11.80;99.90;;;;;;4874856;29;20040;-84
2021/10/04 09:02:49;;;;;;;8.70;2.90;;;11.80;99.90;;;;;;4867083;29;20104;-84
2021/10/04 09:05:27;;;;;;;4.90;2.70;;;11.80;99.90;;;;;;4865774;29;20420;-84
2021/10/04 09:08:12;;;;;;;6.63;3.00;;;11.80;99.90;;;;;;4869978;29;20037;-85
2021/10/04 09:10:44;;;;;;;4.45;2.30;;;11.80;99.90;;;;;;4907922;29;20059;-84
2021/10/04 09:13:19;;;;;;;5.00;2.83;;;11.90;99.90;;;;;;4889494;29;20044;-85
2021/10/04 09:15:47;;;;;;;9.48;2.90;;;11.90;99.90;;;;;;4846784;29;20044;-84
2021/10/04 09:18:27;;;;;;;6.75;2.67;;;12.10;99.90;;;;;;4875463;29;20076;-84
2021/10/04 09:21:09;;;;;;;8.48;2.90;;;12.20;99.90;;;;;;4884827;29;20036;-83
2021/10/04 09:23:47;;;;;;;10.02;2.40;;;12.30;99.90;;;;;;4866692;29;20125;-84
2021/10/04 09:26:32;;;;;;;4.95;2.65;;;12.50;99.90;;;;;;4869549;29;20068;-84
2021/10/04 09:29:00;;;;;;;8.38;2.40;;;12.60;99.90;;;;;;4886643;29;20041;-84
2021/10/04 09:31:30;;;;;;;5.07;2.20;;;12.70;99.90;;;;;;4865118;29;20103;-84
2021/10/04 09:34:12;;;;;;;7.13;2.38;;;12.80;99.90;;;;;;4871683;29;20036;-84
2021/10/04 09:36:39;;;;;;;9.27;2.30;;;12.90;99.90;;;;;;4883396;29;20044;-83
2021/10/04 09:39:11;;;;;;;6.55;2.22;;;13.00;99.90;;;;;;4856738;29;20037;-84
2021/10/04 09:41:54;;;;;;;16.13;2.17;;;13.10;99.90;;;;;;4869685;29;20044;-84
2021/10/04 09:44:20;;;;;;;10.10;2.50;;;13.30;99.90;;;;;;4875683;29;20411;-83
2021/10/04 09:46:46;;;;;;;6.72;2.15;;;13.30;99.90;;;;;;4844923;29;20360;-85
2021/10/04 09:49:12;;;;;;;6.03;2.17;;;13.40;99.90;;;;;;4861385;29;20047;-84
2021/10/04 09:51:54;;;;;;;6.40;1.95;;;13.40;99.90;;;;;;4868262;29;20041;-86
2021/10/04 09:54:20;;;;;;;7.85;2.08;;;13.60;99.90;;;;;;4884474;29;20126;-85
2021/10/04 09:56:46;;;;;;;8.02;2.35;;;13.70;99.90;;;;;;4864942;29;20531;-85
2021/10/04 09:59:12;;;;;;;7.88;2.42;;;13.80;99.90;;;;;;4843985;29;20290;-84
2021/10/04 10:01:38;;;;;;;9.45;2.20;;;13.80;99.90;;;;;;4856745;29;20675;-83
2021/10/04 10:04:05;;;;;;;6.13;2.00;;;13.90;99.90;;;;;;4853976;29;20052;-84
2021/10/04 10:06:35;;;;;;;8.98;2.53;;;14.00;99.90;;;;;;4857569;29;20132;-84
2021/10/04 10:09:02;;;;;;;6.40;2.00;;;14.10;99.90;;;;;;4863201;29;20076;-84
2021/10/04 10:11:31;;;;;;;11.63;2.10;;;14.10;99.90;;;;;;4855108;29;20048;-85
2021/10/04 10:13:57;;;;;;;5.35;1.70;;;14.20;99.90;;;;;;4851547;29;20112;-82
2021/10/04 10:16:36;;;;;;;7.15;1.83;;;14.20;99.90;;;;;;4867676;29;20033;-84
2021/10/04 10:19:07;;;;;;;5.57;1.88;;;14.30;99.90;;;;;;4869657;29;20053;-84
2021/10/04 10:21:34;;;;;;;8.80;1.90;;;14.30;99.90;;;;;;4871546;29;20164;-85
2021/10/04 10:24:09;;;;;;;5.63;1.90;;;14.40;99.90;;;;;;4859444;29;20045;-83
2021/10/04 10:26:39;;;;;;;8.95;1.70;;;14.50;99.90;;;;;;4868479;29;20360;-84
2021/10/04 10:29:17;;;;;;;5.82;1.67;;;14.50;99.90;;;;;;4893050;29;20045;-84
2021/10/04 10:31:57;;;;;;;5.40;1.85;;;14.60;99.90;;;;;;4890672;29;20041;-84
2021/10/04 10:34:29;;;;;;;3.95;1.45;;;14.60;99.90;;;;;;4876622;29;20072;-84
2021/10/04 10:37:12;;;;;;;8.93;1.52;;;14.70;99.90;;;;;;4885633;29;20041;-83
2021/10/04 10:39:43;;;;;;;14.90;2.08;;;14.80;99.90;;;;;;4879280;29;20068;-85
2021/10/04 10:42:15;;;;;;;10.05;1.90;;;14.90;99.90;;;;;;4877482;29;20504;-84
2021/10/04 10:44:56;;;;;;;10.52;1.50;;;14.90;99.90;;;;;;4872936;29;20080;-83
2021/10/04 10:47:34;;;;;;;5.05;1.42;;;15.00;99.90;;;;;;4878387;29;20097;-84
2021/10/04 10:50:23;;;;;;;6.03;1.33;;;15.00;99.90;;;;;;4868347;29;20055;-85
2021/10/04 10:52:55;;;;;;;7.60;1.33;;;15.10;99.90;;;;;;4895527;29;20583;-84
2021/10/04 10:55:20;;;;;;;9.10;1.60;;;15.10;99.90;;;;;;4881750;29;20054;-80
2021/10/04 10:57:49;;;;;;;6.38;1.63;;;15.10;99.90;;;;;;4863756;29;20045;-83
2021/10/04 11:00:19;;;;;;;6.80;1.40;;;15.20;99.90;;;;;;4862888;29;20160;-86
2021/10/04 11:03:14;;;;;;;7.40;1.20;;;15.30;99.90;;;;;;4860585;29;20044;-83
2021/10/04 11:05:42;;;;;;;8.48;1.30;;;15.40;99.90;;;;;;4875509;29;20575;-82
2021/10/04 11:08:23;;;;;;;8.40;1.05;;;15.50;99.90;;;;;;4865146;29;20048;-81
2021/10/04 11:10:52;;;;;;;8.00;1.20;;;15.60;99.80;;;;;;4882496;29;20051;-82
2021/10/04 11:13:27;;;;;;;4.60;1.30;;;15.60;99.10;;;;;;4869155;29;20076;-82
2021/10/04 11:15:54;;;;;;;5.53;1.23;;;15.60;99.30;;;;;;4889815;29;20076;-87
2021/10/04 11:18:22;;;;;;;5.80;1.48;;;15.70;99.30;;;;;;4856455;29;20040;-83
2021/10/04 11:20:48;;;;;;;9.80;1.30;;;15.80;98.70;;;;;;4875509;29;20071;-84
2021/10/04 11:23:17;;;;;;;5.35;1.35;;;15.80;98.50;;;;;;4860725;29;20512;-83
2021/10/04 11:25:49;;;;;;;3.35;0.95;;;15.80;98.50;;;;;;4897277;29;20072;-86
2021/10/04 11:28:18;;;;;;;4.47;1.10;;;15.90;98.70;;;;;;4873957;29;20449;-83
2021/10/04 11:31:01;;;;;;;5.18;1.02;;;16.00;98.00;;;;;;4876717;29;20071;-83
2021/10/04 11:33:29;;;;;;;9.32;1.35;;;16.00;96.90;;;;;;4879195;29;20072;-82
2021/10/04 11:36:09;;;;;;;8.52;1.10;;;16.00;96.00;;;;;;4877264;29;20125;-84
2021/10/04 11:38:51;;;;;;;3.70;1.00;;;16.00;96.40;;;;;;4892663;29;20037;-84
2021/10/04 11:41:31;;;;;;;6.88;1.10;;;16.10;96.90;;;;;;4872432;29;20075;-83
2021/10/04 11:44:07;;;;;;;6.00;1.20;;;16.10;95.10;;;;;;4872295;29;20037;-85
2021/10/04 11:46:37;;;;;;;6.53;1.17;;;16.10;94.50;;;;;;4869568;29;20616;-82
2021/10/04 11:49:33;;;;;;;2.97;0.98;;;16.20;94.10;;;;;;4863443;29;20033;-82
2021/10/04 11:52:04;;;;;;;6.15;1.00;;;16.20;94.90;;;;;;4872421;29;20056;-81
2021/10/04 11:54:48;;;;;;;3.78;0.93;;;16.20;93.00;;;;;;4867742;29;20029;-81
2021/10/04 11:57:29;;;;;;;6.55;1.25;;;16.30;92.20;;;;;;4862578;29;20055;-86
2021/10/04 12:00:06;;;;;;;5.28;1.20;;;16.30;91.60;;;;;;4863980;29;20124;-82
2021/10/04 12:02:37;;;;;;;4.22;1.30;;;16.30;92.20;;;;;;4872127;29;20144;-85
2021/10/04 12:05:18;;;;;;;5.60;1.17;;;16.40;92.60;;;;;;4884301;29;20064;-83
2021/10/04 12:08:07;;;;;;;5.03;1.08;;;16.40;93.30;;;;;;4864870;29;20076;-85
2021/10/04 12:11:00;;;;;;;8.05;1.50;;;16.40;92.90;;;;;;4864357;29;20044;-84
2021/10/04 12:13:44;;;;;;;6.13;0.90;;;16.50;90.90;;;;;;4865274;29;20088;-84
2021/10/04 12:16:13;;;;;;;6.28;1.27;;;16.50;92.00;;;;;;4875516;29;20304;-84
2021/10/04 12:18:59;;;;;;;6.35;1.85;;;16.60;92.30;;;;;;4880869;29;20040;-86
2021/10/04 12:21:41;;;;;;;3.22;0.82;;;16.70;92.60;;;;;;4885509;29;20033;-81
2021/10/04 12:24:10;;;;;;;6.63;1.17;;;16.70;91.30;;;;;;4883020;29;21305;-85
2021/10/04 12:26:49;;;;;;;3.08;1.08;;;16.70;89.90;;;;;;4857023;29;20832;-81
2021/10/04 12:29:41;;;;;;;3.45;1.00;;;16.80;90.40;;;;;;4893130;29;20041;-83
2021/10/04 12:32:31;;;;;;;8.07;1.20;;;16.70;90.50;;;;;;4872240;29;20041;-84
2021/10/04 12:35:03;;;;;;;4.35;1.20;;;16.70;91.20;;;;;;4872356;29;20440;-83
2021/10/04 12:37:31;;;;;;;5.23;1.00;;;16.80;87.80;;;;;;4875457;29;20048;-82
2021/10/04 12:39:58;;;;;;;5.88;1.15;;;16.80;88.10;;;;;;4873576;29;20860;-81
2021/10/04 12:42:25;;;;;;;10.43;1.23;;;16.80;88.30;;;;;;4871466;29;20052;-85
2021/10/04 12:44:51;;;;;;;5.03;1.20;;;16.80;88.50;;;;;;4850339;29;20055;-83
2021/10/04 12:47:17;;;;;;;2.30;0.70;;;16.90;89.70;;;;;;4880194;29;20491;-85
2021/10/04 12:49:54;;;;;;;5.95;1.00;;;16.90;87.70;;;;;;4858737;29;20044;-82
2021/10/04 12:52:25;;;;;;;4.88;1.02;;;17.00;86.10;;;;;;4881874;29;20123;-84